ニノイ・アキノ国際空港 の過去48時間の天気

ニノイ・アキノ国際空港 (Ninoy Aquino Inter-National Airport)

現在時刻: 1/26 15:08 PST (1/26 07:08 UTC) 以下の時間は現地時間です。

過去48時間のMETAR気象情報
時間 風向 風速(m/s) 視程 気温(℃) 湿度(%) 気圧(hPa) 天気現象
26 14:00 北西 5 10km以上 31 66 1009
26 13:00 3 10km以上 31 66 1010
26 12:00 西 4 10km以上 30 70 1011
26 11:00 西 3 10km以上 30 70 1011
26 10:00 西 3 10km以上 28 74 1012
26 09:00 不定 1 10km以上 28 74 1012
26 08:00 不定 1 10km以上 27 84 1012
26 07:00 不定 1 10km以上 25 94 1011
26 06:00 不定 1 10km以上 25 89 1010
26 05:00 不定 1 10km以上 25 89 1010
26 04:00 西北西 2 10km以上 26 89 1010
RPLL 260600Z 31009KT 9999 FEW023 BKN300 31/24 Q1009 NOSIG RMK A2980
RPLL 260500Z VRB05KT 9999 FEW023 BKN300 31/24 Q1010 NOSIG RMK A2983
RPLL 260400Z 28007KT 230V330 9999 FEW023 SCT300 30/24 Q1011 NOSIG RMK A2985
RPLL 260300Z 28005KT 250V320 9999 FEW023 SCT300 30/24 Q1011 NOSIG RMK A2985
RPLL 260200Z 27005KT 210V350 9999 FEW023 SCT300 28/23 Q1012 NOSIG RMK A2988
RPLL 260100Z VRB02KT 9999 FEW023 SCT300 28/23 Q1012 NOSIG RMK A2988
RPLL 260000Z VRB01KT 9999 FEW023 SCT300 27/24 Q1012 NOSIG RMK A2988
RPLL 252300Z VRB01KT 9999 FEW023 SCT300 25/24 Q1011 NOSIG RMK A2985
RPLL 252200Z VRB02KT 9999 FEW023 SCT100 25/23 Q1010 NOSIG RMK A2983
RPLL 252100Z VRB02KT 9999 FEW023 SCT100 25/23 Q1010 NOSIG RMK A2983
RPLL 252000Z 29004KT 250V340 9999 FEW023 BKN100 26/24 Q1010 NOSIG RMK A2983